createdAt,value
2022-12-20T00:01:28.962Z,96960.94
2022-12-20T00:04:00.152Z,96960.31
2022-12-20T00:06:27.294Z,96950.25
2022-12-20T00:08:59.183Z,96966.41
2022-12-20T00:11:27.425Z,96967.50
2022-12-20T00:13:54.267Z,96980.66
2022-12-20T00:16:24.187Z,96970.41
2022-12-20T00:18:52.903Z,96977.78
2022-12-20T00:21:20.271Z,96965.06
2022-12-20T00:23:47.332Z,96985.94
2022-12-20T00:26:20.123Z,96986.22
2022-12-20T00:28:47.695Z,96980.09
2022-12-20T00:31:17.178Z,96987.19
2022-12-20T00:33:49.367Z,96979.38
2022-12-20T00:36:17.094Z,96988.97
2022-12-20T00:38:48.740Z,96978.72
2022-12-20T00:41:18.979Z,96980.22
2022-12-20T00:43:46.205Z,96974.59
2022-12-20T00:46:14.483Z,96971.66
2022-12-20T00:48:41.462Z,96956.13
2022-12-20T00:51:12.095Z,96963.41
2022-12-20T00:53:39.720Z,96974.91
2022-12-20T00:56:07.815Z,96972.38
2022-12-20T00:58:37.684Z,96984.31
2022-12-20T01:01:06.885Z,96972.94
2022-12-20T01:03:34.594Z,96971.63
2022-12-20T01:06:03.038Z,96980.41
2022-12-20T01:08:31.212Z,96983.63
2022-12-20T01:11:19.524Z,96978.00
2022-12-20T01:13:48.565Z,96977.91
2022-12-20T01:16:28.060Z,96974.97
2022-12-20T01:18:55.837Z,96975.50
2022-12-20T01:21:25.120Z,96962.47
2022-12-20T01:23:52.440Z,96959.00
2022-12-20T01:26:22.444Z,96957.69
2022-12-20T01:28:53.550Z,96963.19
2022-12-20T01:31:21.132Z,96954.56
2022-12-20T01:33:49.853Z,96944.72
2022-12-20T01:36:20.274Z,96947.81
2022-12-20T01:38:47.399Z,96952.91
2022-12-20T01:41:19.553Z,96946.28
2022-12-20T01:44:26.052Z,96947.56
2022-12-20T01:46:54.029Z,96943.66
2022-12-20T01:49:26.822Z,96938.03
2022-12-20T01:51:57.762Z,96938.19
2022-12-20T01:54:38.876Z,96937.16
2022-12-20T01:57:12.853Z,96926.31
2022-12-20T01:59:41.854Z,96931.75
2022-12-20T02:02:12.248Z,96935.13
2022-12-20T02:04:39.709Z,96914.41
2022-12-20T02:07:08.634Z,96910.06
2022-12-20T02:09:38.467Z,96915.84
2022-12-20T02:12:14.474Z,96921.13
2022-12-20T02:14:53.259Z,96909.03
2022-12-20T02:17:46.623Z,96913.03
2022-12-20T02:20:19.407Z,96918.72
2022-12-20T02:23:19.444Z,96916.72
2022-12-20T02:26:07.926Z,96920.66
2022-12-20T02:28:42.829Z,96917.91
2022-12-20T02:31:15.298Z,96925.72
2022-12-20T02:33:45.781Z,96918.53
2022-12-20T02:36:16.101Z,96918.00
2022-12-20T02:38:43.171Z,96919.31
2022-12-20T02:41:27.204Z,96919.06
2022-12-20T02:44:21.477Z,96914.25
2022-12-20T02:46:49.828Z,96905.34
2022-12-20T02:49:22.067Z,96907.16
2022-12-20T02:51:52.151Z,96910.16
2022-12-20T02:54:20.032Z,96901.19
2022-12-20T02:56:52.583Z,96895.69
2022-12-20T02:59:26.017Z,96899.88
2022-12-20T03:01:55.673Z,96898.50
2022-12-20T03:04:27.015Z,96895.97
2022-12-20T03:07:07.945Z,96899.38
2022-12-20T03:09:39.531Z,96900.94
2022-12-20T03:12:06.973Z,96897.09
2022-12-20T03:14:36.120Z,96892.06
2022-12-20T03:17:07.518Z,96883.50
2022-12-20T03:19:35.457Z,96889.00
2022-12-20T03:22:02.260Z,96891.69
2022-12-20T03:24:32.678Z,96887.34
2022-12-20T03:27:00.869Z,96880.25
2022-12-20T03:29:27.723Z,96886.34
2022-12-20T03:31:54.523Z,96886.00
2022-12-20T03:34:21.795Z,96877.81
2022-12-20T03:36:49.684Z,96887.22
2022-12-20T03:39:16.394Z,96894.25
2022-12-20T03:41:43.381Z,96889.88
2022-12-20T03:44:12.661Z,96885.63
2022-12-20T03:46:40.361Z,96884.28
2022-12-20T03:49:07.551Z,96883.88
2022-12-20T03:51:42.176Z,96879.22
2022-12-20T03:54:09.306Z,96884.78
2022-12-20T03:56:56.342Z,96882.66
2022-12-20T03:59:23.329Z,96880.31
2022-12-20T04:01:50.212Z,96871.03
2022-12-20T04:04:18.178Z,96862.59
2022-12-20T04:06:45.009Z,96868.66
2022-12-20T04:09:12.135Z,96877.19
2022-12-20T04:11:46.477Z,96881.56
2022-12-20T04:14:15.508Z,96874.13
2022-12-20T04:16:43.904Z,96872.88
2022-12-20T04:19:12.039Z,96870.41
2022-12-20T04:21:46.239Z,96864.47
2022-12-20T04:24:14.628Z,96869.47
2022-12-20T04:26:45.823Z,96870.91
2022-12-20T04:29:13.877Z,96873.63
2022-12-20T04:31:42.504Z,96866.88
2022-12-20T04:34:09.707Z,96866.19
2022-12-20T04:36:36.972Z,96866.66
2022-12-20T04:39:08.078Z,96845.97
2022-12-20T04:41:46.598Z,96863.09
2022-12-20T04:44:14.182Z,96862.59
2022-12-20T04:46:40.960Z,96855.00
2022-12-20T04:49:12.160Z,96867.94
2022-12-20T04:51:41.873Z,96861.72
2022-12-20T04:54:11.045Z,96867.34
2022-12-20T04:56:46.103Z,96868.13
2022-12-20T04:59:17.717Z,96866.81
2022-12-20T05:01:47.450Z,96866.00
2022-12-20T05:04:22.378Z,96865.09
2022-12-20T05:06:49.136Z,96864.81
2022-12-20T05:09:16.044Z,96868.66
2022-12-20T05:11:43.348Z,96864.41
2022-12-20T05:14:10.196Z,96866.75
2022-12-20T05:16:39.217Z,96857.66
2022-12-20T05:19:06.697Z,96863.50
2022-12-20T05:21:57.976Z,96862.19
2022-12-20T05:24:43.760Z,96857.47
2022-12-20T05:27:23.384Z,96868.81
2022-12-20T05:29:50.552Z,96862.94
2022-12-20T05:32:17.525Z,96861.09
2022-12-20T05:34:44.341Z,96863.66
2022-12-20T05:37:11.230Z,96857.91
2022-12-20T05:39:40.243Z,96868.66
2022-12-20T05:42:13.334Z,96865.94
2022-12-20T05:44:40.468Z,96877.63
2022-12-20T05:47:08.499Z,96873.38
2022-12-20T05:49:36.990Z,96866.31
2022-12-20T05:52:06.737Z,96881.38
2022-12-20T05:54:35.680Z,96875.69
2022-12-20T05:57:06.562Z,96879.44
2022-12-20T05:59:37.283Z,96874.56
2022-12-20T06:02:06.496Z,96880.16
2022-12-20T06:04:34.588Z,96875.00
2022-12-20T06:07:06.731Z,96870.91
2022-12-20T06:09:33.680Z,96871.94
2022-12-20T06:12:06.095Z,96882.13
2022-12-20T06:14:34.518Z,96877.69
2022-12-20T06:17:02.358Z,96878.44
2022-12-20T06:19:30.885Z,96880.69
2022-12-20T06:21:59.209Z,96870.59
2022-12-20T06:24:35.088Z,96857.25
2022-12-20T06:27:03.355Z,96866.16
2022-12-20T06:29:30.574Z,96871.78
2022-12-20T06:32:08.638Z,96881.56
2022-12-20T06:34:35.738Z,96881.28
2022-12-20T06:37:02.568Z,96876.97
2022-12-20T06:39:32.801Z,96883.41
2022-12-20T06:42:03.121Z,96875.56
2022-12-20T06:44:30.108Z,96875.78
2022-12-20T06:46:57.065Z,96870.06
2022-12-20T06:49:24.253Z,96868.09
2022-12-20T06:51:51.485Z,96863.59
2022-12-20T06:54:22.693Z,96858.94
2022-12-20T06:56:50.858Z,96851.13
2022-12-20T06:59:17.918Z,96867.06
2022-12-20T07:01:44.980Z,96859.97
2022-12-20T07:04:11.937Z,96839.34
2022-12-20T07:06:38.868Z,96857.56
2022-12-20T07:09:05.648Z,96852.59
2022-12-20T07:11:32.545Z,96855.63
2022-12-20T07:13:59.615Z,96842.75
2022-12-20T07:16:26.752Z,96838.88
2022-12-20T07:18:54.182Z,96839.25
2022-12-20T07:21:21.602Z,96838.59
2022-12-20T07:23:48.444Z,96838.00
2022-12-20T07:26:15.488Z,96842.00
2022-12-20T07:28:43.041Z,96844.69
2022-12-20T07:31:09.821Z,96838.16
2022-12-20T07:33:37.445Z,96838.75
2022-12-20T07:36:07.104Z,96842.78
2022-12-20T07:38:35.704Z,96833.59
2022-12-20T07:41:08.665Z,96828.47
2022-12-20T07:43:36.122Z,96841.06
2022-12-20T07:46:05.361Z,96841.56
2022-12-20T07:48:32.642Z,96833.78
2022-12-20T07:51:34.373Z,96830.56
2022-12-20T07:54:13.961Z,96835.41
2022-12-20T07:56:46.046Z,96826.69
2022-12-20T07:59:16.302Z,96832.19
2022-12-20T08:01:45.336Z,96819.84
2022-12-20T08:04:17.515Z,96829.91
2022-12-20T08:06:44.528Z,96820.66
2022-12-20T08:09:13.466Z,96816.28
2022-12-20T08:11:43.626Z,96812.41
2022-12-20T08:14:11.426Z,96820.25
2022-12-20T08:16:38.810Z,96815.31
2022-12-20T08:19:05.721Z,96813.22
2022-12-20T08:21:32.542Z,96812.25
2022-12-20T08:23:59.518Z,96813.00
2022-12-20T08:26:26.558Z,96809.63
2022-12-20T08:28:55.136Z,96806.06
2022-12-20T08:31:22.366Z,96804.03
2022-12-20T08:33:49.613Z,96796.31
2022-12-20T08:36:16.350Z,96789.78
2022-12-20T08:38:43.104Z,96793.44
2022-12-20T08:41:12.896Z,96790.69
2022-12-20T08:43:40.999Z,96783.88
2022-12-20T08:46:09.708Z,96780.69
2022-12-20T08:48:36.552Z,96778.28
2022-12-20T08:51:05.768Z,96778.44
2022-12-20T08:53:34.649Z,96771.03
2022-12-20T08:56:13.113Z,96770.47
2022-12-20T08:58:40.882Z,96775.16
2022-12-20T09:01:11.955Z,96778.13
2022-12-20T09:03:40.527Z,96770.69
2022-12-20T09:06:20.093Z,96759.78
2022-12-20T09:08:47.644Z,96754.72
2022-12-20T09:11:23.902Z,96752.44
2022-12-20T09:13:53.250Z,96752.91
2022-12-20T09:16:22.549Z,96749.97
2022-12-20T09:18:51.108Z,96745.66
2022-12-20T09:21:18.906Z,96737.28
2022-12-20T09:23:47.069Z,96728.63
2022-12-20T09:26:16.189Z,96736.13
2022-12-20T09:28:44.335Z,96731.41
2022-12-20T09:31:14.064Z,96717.06
2022-12-20T09:33:41.634Z,96726.91
2022-12-20T09:36:13.744Z,96714.34
2022-12-20T09:38:40.877Z,96726.72
2022-12-20T09:41:20.663Z,96713.00
2022-12-20T09:43:49.948Z,96705.63
2022-12-20T09:46:17.647Z,96700.47
2022-12-20T09:48:46.713Z,96699.28
2022-12-20T09:51:52.121Z,96708.56
2022-12-20T09:54:48.200Z,96693.94
2022-12-20T09:57:41.477Z,96693.66
2022-12-20T10:00:16.022Z,96688.72
2022-12-20T10:05:41.742Z,96677.09
2022-12-20T10:08:32.916Z,96670.25
2022-12-20T10:11:10.086Z,96657.94
2022-12-20T10:13:54.273Z,96661.91
2022-12-20T10:16:50.267Z,96658.28
2022-12-20T10:19:29.139Z,96644.97
2022-12-20T10:22:23.956Z,96634.53
2022-12-20T10:25:01.660Z,96631.25
2022-12-20T10:27:29.058Z,96624.25
2022-12-20T10:29:55.764Z,96613.53
2022-12-20T10:32:24.465Z,96605.28
2022-12-20T10:35:11.986Z,96597.34
2022-12-20T10:37:41.398Z,96583.28
2022-12-20T10:40:46.390Z,96589.19
2022-12-20T10:43:20.172Z,96583.69
2022-12-20T10:46:08.554Z,96579.59
2022-12-20T10:48:41.210Z,96576.28
2022-12-20T10:51:15.785Z,96578.00
2022-12-20T10:53:56.967Z,96564.00
2022-12-20T10:56:36.528Z,96555.22
2022-12-20T10:59:29.400Z,96558.69
2022-12-20T11:01:56.486Z,96550.94
2022-12-20T11:04:35.781Z,96555.00
2022-12-20T11:07:21.646Z,96553.44
2022-12-20T11:10:00.533Z,96542.59
2022-12-20T11:12:27.525Z,96537.38
2022-12-20T11:15:11.044Z,96547.72
2022-12-20T11:17:43.557Z,96538.94
2022-12-20T11:20:32.101Z,96540.72
2022-12-20T11:23:05.158Z,96525.41
2022-12-20T11:25:59.080Z,96526.88
2022-12-20T11:28:37.935Z,96532.97
2022-12-20T11:31:17.242Z,96523.84
2022-12-20T11:34:10.282Z,96521.97
2022-12-20T11:36:56.700Z,96514.31
2022-12-20T11:39:36.725Z,96516.56
2022-12-20T11:42:34.522Z,96513.03
2022-12-20T11:45:21.425Z,96498.31
2022-12-20T11:48:09.836Z,96501.09
2022-12-20T11:50:49.304Z,96496.72
2022-12-20T11:53:57.534Z,96481.75
2022-12-20T11:56:38.686Z,96485.97
2022-12-20T11:59:38.194Z,96475.59
2022-12-20T12:02:12.580Z,96458.22
2022-12-20T12:04:57.204Z,96464.88
2022-12-20T12:07:32.745Z,96468.88
2022-12-20T12:10:14.660Z,96468.59
2022-12-20T12:12:45.374Z,96460.47
2022-12-20T12:15:16.926Z,96460.69
2022-12-20T12:18:05.441Z,96461.34
2022-12-20T12:20:32.272Z,96451.50
2022-12-20T12:23:12.810Z,96454.91
2022-12-20T12:25:39.592Z,96432.72
2022-12-20T12:28:12.883Z,96447.41
2022-12-20T12:30:44.858Z,96447.56
2022-12-20T12:33:25.439Z,96453.66
2022-12-20T12:36:20.638Z,96448.84
2022-12-20T12:39:14.575Z,96442.19
2022-12-20T12:41:59.939Z,96441.19
2022-12-20T12:45:03.857Z,96434.06
2022-12-20T12:47:50.236Z,96420.81
2022-12-20T12:50:27.462Z,96425.94
2022-12-20T12:52:57.994Z,96418.84
2022-12-20T12:55:42.898Z,96417.88
2022-12-20T12:58:22.765Z,96411.31
2022-12-20T13:00:52.598Z,96404.75
2022-12-20T13:03:55.105Z,96403.78
2022-12-20T13:06:28.287Z,96406.97
2022-12-20T13:09:03.908Z,96408.28
2022-12-20T13:11:35.877Z,96395.50
2022-12-20T13:14:17.922Z,96397.91
2022-12-20T13:17:11.526Z,96383.56
2022-12-20T13:19:36.134Z,96393.28
2022-12-20T13:22:11.988Z,96399.97
2022-12-20T13:24:55.756Z,96401.22
2022-12-20T13:27:28.531Z,96425.94
2022-12-20T13:30:07.330Z,96410.03
2022-12-20T13:32:49.288Z,96418.81
2022-12-20T13:35:25.282Z,96424.81
2022-12-20T13:38:06.083Z,96415.97
2022-12-20T13:40:35.838Z,96407.56
2022-12-20T13:43:10.986Z,96409.50
2022-12-20T13:45:43.462Z,96411.16
2022-12-20T13:48:18.097Z,96413.19
2022-12-20T13:50:55.179Z,96424.03
2022-12-20T13:53:27.646Z,96419.38
2022-12-20T13:55:55.142Z,96416.03
2022-12-20T13:58:48.060Z,96418.03
2022-12-20T14:01:24.571Z,96414.00
2022-12-20T14:03:53.363Z,96409.59
2022-12-20T14:06:26.747Z,96411.41
2022-12-20T14:08:55.243Z,96404.38
2022-12-20T14:11:27.084Z,96389.31
2022-12-20T14:14:02.162Z,96400.75
2022-12-20T14:16:33.342Z,96395.94
2022-12-20T14:19:06.865Z,96396.72
2022-12-20T14:21:40.542Z,96392.94
2022-12-20T14:24:18.192Z,96396.75
2022-12-20T14:26:51.560Z,96393.06
2022-12-20T14:29:20.573Z,96397.81
2022-12-20T14:31:48.570Z,96396.72
2022-12-20T14:34:29.532Z,96392.69
2022-12-20T14:37:30.144Z,96394.25
2022-12-20T14:39:57.187Z,96388.28
2022-12-20T14:42:29.676Z,96384.25
2022-12-20T14:45:14.607Z,96384.47
2022-12-20T14:47:56.598Z,96368.78
2022-12-20T14:50:29.266Z,96397.41
2022-12-20T14:52:57.120Z,96386.41
2022-12-20T14:55:32.981Z,96375.03
2022-12-20T14:58:00.149Z,96387.84
2022-12-20T15:00:33.424Z,96381.50
2022-12-20T15:03:04.952Z,96383.63
2022-12-20T15:05:40.922Z,96379.81
2022-12-20T15:08:16.799Z,96380.81
2022-12-20T15:10:50.656Z,96378.03
2022-12-20T15:13:20.245Z,96372.72
2022-12-20T15:15:48.357Z,96378.16
2022-12-20T15:18:17.298Z,96369.72
2022-12-20T15:20:46.612Z,96380.75
2022-12-20T15:23:17.235Z,96383.91
2022-12-20T15:25:44.443Z,96382.16
2022-12-20T15:28:18.612Z,96385.59
2022-12-20T15:30:47.542Z,96393.44
2022-12-20T15:33:17.511Z,96374.59
2022-12-20T15:35:45.551Z,96379.31
2022-12-20T15:38:16.473Z,96387.28
2022-12-20T15:40:45.426Z,96378.09
2022-12-20T15:43:14.251Z,96378.50
2022-12-20T15:45:46.595Z,96384.00
2022-12-20T15:48:16.134Z,96385.19
2022-12-20T15:50:50.415Z,96381.97
2022-12-20T15:53:22.659Z,96381.97
2022-12-20T15:55:54.779Z,96388.91
2022-12-20T15:58:21.544Z,96372.66
2022-12-20T16:00:49.240Z,96377.91
2022-12-20T16:03:20.390Z,96379.81
2022-12-20T16:05:48.743Z,96373.25
2022-12-20T16:08:16.581Z,96376.72
2022-12-20T16:10:43.671Z,96378.66
2022-12-20T16:13:20.758Z,96376.00
2022-12-20T16:15:48.027Z,96386.25
2022-12-20T16:18:15.083Z,96381.88
2022-12-20T16:20:42.175Z,96376.97
2022-12-20T16:23:20.390Z,96377.13
2022-12-20T16:25:47.112Z,96374.03
2022-12-20T16:28:13.832Z,96383.13
2022-12-20T16:30:40.671Z,96370.03
2022-12-20T16:33:08.791Z,96373.66
2022-12-20T16:35:37.492Z,96372.22
2022-12-20T16:38:04.524Z,96363.28
2022-12-20T16:40:32.979Z,96366.84
2022-12-20T16:43:01.131Z,96365.41
2022-12-20T16:45:32.062Z,96368.81
2022-12-20T16:47:59.162Z,96359.25
2022-12-20T16:50:28.117Z,96367.41
2022-12-20T16:52:55.056Z,96369.50
2022-12-20T16:55:27.601Z,96362.66
2022-12-20T16:57:54.813Z,96365.69
2022-12-20T17:00:25.699Z,96356.91
2022-12-20T17:02:53.132Z,96356.44
2022-12-20T17:05:26.300Z,96362.72
2022-12-20T17:07:53.505Z,96350.63
2022-12-20T17:10:20.648Z,96356.72
2022-12-20T17:12:47.808Z,96361.84
2022-12-20T17:15:26.749Z,96350.75
2022-12-20T17:17:54.523Z,96357.34
2022-12-20T17:20:24.066Z,96348.94
2022-12-20T17:22:54.132Z,96354.03
2022-12-20T17:25:25.317Z,96356.44
2022-12-20T17:27:52.474Z,96344.81
2022-12-20T17:30:20.057Z,96352.72
2022-12-20T17:32:46.895Z,96352.88
2022-12-20T17:35:20.734Z,96348.16
2022-12-20T17:37:48.168Z,96356.09
2022-12-20T17:40:15.948Z,96358.25
2022-12-20T17:42:42.970Z,96362.25
2022-12-20T17:45:31.083Z,96363.16
2022-12-20T17:47:58.831Z,96363.59
2022-12-20T17:50:26.603Z,96368.03
2022-12-20T17:52:54.822Z,96362.47
2022-12-20T17:55:25.628Z,96362.56
2022-12-20T17:57:53.918Z,96366.53
2022-12-20T18:00:38.876Z,96360.75
2022-12-20T18:03:07.282Z,96364.22
2022-12-20T18:05:34.965Z,96347.81
2022-12-20T18:08:01.961Z,96355.75
2022-12-20T18:10:28.717Z,96350.84
2022-12-20T18:12:55.516Z,96354.84
2022-12-20T18:15:22.319Z,96351.00
2022-12-20T18:17:49.064Z,96356.09
2022-12-20T18:20:16.311Z,96352.50
2022-12-20T18:22:43.349Z,96343.38
2022-12-20T18:25:13.793Z,96345.13
2022-12-20T18:27:42.807Z,96352.41
2022-12-20T18:30:12.199Z,96347.25
2022-12-20T18:32:40.315Z,96351.09
2022-12-20T18:35:07.950Z,96348.94
2022-12-20T18:37:34.944Z,96339.94
2022-12-20T18:40:01.734Z,96329.38
2022-12-20T18:42:28.502Z,96335.63
2022-12-20T18:44:55.380Z,96331.97
2022-12-20T18:47:22.196Z,96336.81
2022-12-20T18:49:48.941Z,96334.41
2022-12-20T18:52:15.806Z,96332.50
2022-12-20T18:54:42.857Z,96324.59
2022-12-20T18:57:09.826Z,96326.13
2022-12-20T18:59:36.785Z,96322.31
2022-12-20T19:02:04.381Z,96321.53
2022-12-20T19:04:31.623Z,96315.41
2022-12-20T19:06:58.685Z,96317.97
2022-12-20T19:09:25.509Z,96319.91
2022-12-20T19:11:57.156Z,96319.38
2022-12-20T19:14:25.226Z,96313.19
2022-12-20T19:16:53.263Z,96306.34
2022-12-20T19:19:20.755Z,96303.81
2022-12-20T19:21:48.294Z,96302.19
2022-12-20T19:24:15.153Z,96304.72
2022-12-20T19:26:41.962Z,96302.66
2022-12-20T19:29:08.941Z,96309.00
2022-12-20T19:31:37.809Z,96306.28
2022-12-20T19:34:09.043Z,96296.59
2022-12-20T19:36:46.748Z,96306.84
2022-12-20T19:39:17.147Z,96298.31
2022-12-20T19:41:54.926Z,96295.69
2022-12-20T19:44:36.198Z,96291.75
2022-12-20T19:47:09.369Z,96291.75
2022-12-20T19:49:36.490Z,96285.00
2022-12-20T19:52:03.892Z,96286.72
2022-12-20T19:54:30.638Z,96287.38
2022-12-20T19:56:58.665Z,96279.69
2022-12-20T19:59:25.589Z,96283.84
2022-12-20T20:01:52.488Z,96289.25
2022-12-20T20:04:19.359Z,96294.72
2022-12-20T20:06:46.075Z,96297.09
2022-12-20T20:09:12.931Z,96299.94
2022-12-20T20:11:39.715Z,96297.00
2022-12-20T20:14:09.378Z,96295.47
2022-12-20T20:16:37.696Z,96299.59
2022-12-20T20:19:05.725Z,96294.06
2022-12-20T20:21:36.259Z,96296.03
2022-12-20T20:24:03.350Z,96287.00
2022-12-20T20:26:31.757Z,96287.75
2022-12-20T20:29:01.132Z,96291.06
2022-12-20T20:31:27.995Z,96287.41
2022-12-20T20:33:54.990Z,96286.94
2022-12-20T20:36:23.410Z,96286.94
2022-12-20T20:38:51.039Z,96278.53
2022-12-20T20:41:18.730Z,96281.75
2022-12-20T20:43:45.473Z,96277.03
2022-12-20T20:46:14.389Z,96274.19
2022-12-20T20:48:41.835Z,96265.19
2022-12-20T20:51:08.968Z,96263.59
2022-12-20T20:53:35.905Z,96274.75
2022-12-20T20:56:04.905Z,96286.66
2022-12-20T20:58:32.924Z,96281.81
2022-12-20T21:01:02.244Z,96266.69
2022-12-20T21:03:31.259Z,96272.19
2022-12-20T21:08:45.395Z,96269.91
2022-12-20T21:11:12.577Z,96256.47
2022-12-20T21:13:39.558Z,96265.66
2022-12-20T21:16:07.761Z,96275.38
2022-12-20T21:18:34.983Z,96258.97
2022-12-20T21:21:13.082Z,96263.78
2022-12-20T21:23:44.507Z,96254.97
2022-12-20T21:26:11.317Z,96248.28
2022-12-20T21:28:38.227Z,96253.94
2022-12-20T21:31:09.574Z,96262.50
2022-12-20T21:33:36.544Z,96252.66
2022-12-20T21:36:10.629Z,96243.34
2022-12-20T21:38:37.427Z,96244.78
2022-12-20T21:41:07.066Z,96247.38
2022-12-20T21:43:34.028Z,96245.94
2022-12-20T21:46:01.076Z,96242.56
2022-12-20T21:48:29.691Z,96237.94
2022-12-20T21:51:04.197Z,96234.72
2022-12-20T21:53:32.407Z,96238.63
2022-12-20T21:56:00.489Z,96240.06
2022-12-20T21:58:29.976Z,96238.41
2022-12-20T22:00:57.833Z,96231.41
2022-12-20T22:03:25.734Z,96227.13
2022-12-20T22:05:55.779Z,96232.66
2022-12-20T22:08:24.832Z,96236.41
2022-12-20T22:11:04.008Z,96228.63
2022-12-20T22:13:35.676Z,96227.38
2022-12-20T22:16:12.010Z,96232.75
2022-12-20T22:18:39.934Z,96223.91
2022-12-20T22:21:09.440Z,96233.25
2022-12-20T22:23:37.636Z,96225.19
2022-12-20T22:26:06.812Z,96220.91
2022-12-20T22:28:33.661Z,96211.28
2022-12-20T22:31:18.776Z,96210.63
2022-12-20T22:33:45.650Z,96213.88
2022-12-20T22:36:14.878Z,96202.50
2022-12-20T22:38:43.404Z,96197.97
2022-12-20T22:41:22.440Z,96206.84
2022-12-20T22:43:50.020Z,96200.38
2022-12-20T22:46:18.292Z,96191.00
2022-12-20T22:48:46.071Z,96178.03
2022-12-20T22:51:21.776Z,96170.84
2022-12-20T22:53:49.607Z,96173.06
2022-12-20T22:56:18.776Z,96164.72
2022-12-20T22:58:45.719Z,96163.88
2022-12-20T23:01:15.313Z,96169.78
2022-12-20T23:03:42.614Z,96174.88
2022-12-20T23:06:13.163Z,96170.78
2022-12-20T23:08:40.291Z,96165.41
2022-12-20T23:11:34.645Z,96167.50
2022-12-20T23:14:20.216Z,96162.16
2022-12-20T23:16:47.072Z,96163.09
2022-12-20T23:19:13.863Z,96169.19
2022-12-20T23:21:59.165Z,96174.94
2022-12-20T23:24:25.926Z,96162.16
2022-12-20T23:26:52.817Z,96161.53
2022-12-20T23:29:19.574Z,96160.09
2022-12-20T23:31:46.466Z,96152.25
2022-12-20T23:34:13.572Z,96143.16
2022-12-20T23:36:40.914Z,96148.31
2022-12-20T23:39:08.251Z,96142.16
2022-12-20T23:41:35.558Z,96130.06
2022-12-20T23:44:06.074Z,96138.13
2022-12-20T23:46:33.150Z,96140.41
2022-12-20T23:48:59.977Z,96127.31
2022-12-20T23:51:26.826Z,96137.34
2022-12-20T23:53:53.576Z,96142.16
2022-12-20T23:56:22.063Z,96129.47
2022-12-20T23:58:53.967Z,96142.34
